sensor_id;sensor_type;location;lat;lon;timestamp;pressure;altitude;pressure_sealevel;temperature
15575;BMP180;7888;46.748;8.102;2023-03-23T00:01:17;93728.00;;;16.20
15575;BMP180;7888;46.748;8.102;2023-03-23T00:03:50;93719.00;;;16.10
15575;BMP180;7888;46.748;8.102;2023-03-23T00:06:18;93737.00;;;16.10
15575;BMP180;7888;46.748;8.102;2023-03-23T00:08:47;93734.00;;;16.10
15575;BMP180;7888;46.748;8.102;2023-03-23T00:11:17;93729.00;;;16.10
15575;BMP180;7888;46.748;8.102;2023-03-23T00:13:49;93726.00;;;16.00
15575;BMP180;7888;46.748;8.102;2023-03-23T00:16:24;93731.00;;;16.00
15575;BMP180;7888;46.748;8.102;2023-03-23T00:19:10;93724.00;;;16.00
15575;BMP180;7888;46.748;8.102;2023-03-23T00:21:40;93723.00;;;16.00
15575;BMP180;7888;46.748;8.102;2023-03-23T00:24:16;93719.00;;;16.00
15575;BMP180;7888;46.748;8.102;2023-03-23T00:26:45;93726.00;;;16.00
15575;BMP180;7888;46.748;8.102;2023-03-23T00:29:22;93724.00;;;15.90
15575;BMP180;7888;46.748;8.102;2023-03-23T00:31:49;93708.00;;;15.90
15575;BMP180;7888;46.748;8.102;2023-03-23T00:34:19;93728.00;;;15.90
15575;BMP180;7888;46.748;8.102;2023-03-23T00:36:51;93716.00;;;15.90
15575;BMP180;7888;46.748;8.102;2023-03-23T00:39:19;93713.00;;;15.80
15575;BMP180;7888;46.748;8.102;2023-03-23T00:41:46;93713.00;;;15.90
15575;BMP180;7888;46.748;8.102;2023-03-23T00:44:13;93717.00;;;15.90
15575;BMP180;7888;46.748;8.102;2023-03-23T00:46:46;93704.00;;;15.80
15575;BMP180;7888;46.748;8.102;2023-03-23T00:49:20;93715.00;;;15.80
15575;BMP180;7888;46.748;8.102;2023-03-23T00:51:52;93712.00;;;15.90
15575;BMP180;7888;46.748;8.102;2023-03-23T00:54:18;93703.00;;;15.90
15575;BMP180;7888;46.748;8.102;2023-03-23T00:56:44;93706.00;;;15.90
15575;BMP180;7888;46.748;8.102;2023-03-23T00:59:09;93706.00;;;15.90
15575;BMP180;7888;46.748;8.102;2023-03-23T01:01:35;93695.00;;;15.90
15575;BMP180;7888;46.748;8.102;2023-03-23T01:04:02;93700.00;;;15.90
15575;BMP180;7888;46.748;8.102;2023-03-23T01:06:33;93701.00;;;15.80
15575;BMP180;7888;46.748;8.102;2023-03-23T01:09:02;93689.00;;;15.80
15575;BMP180;7888;46.748;8.102;2023-03-23T01:11:29;93699.00;;;15.80
15575;BMP180;7888;46.748;8.102;2023-03-23T01:13:55;93703.00;;;15.80
15575;BMP180;7888;46.748;8.102;2023-03-23T01:16:21;93705.00;;;15.80
15575;BMP180;7888;46.748;8.102;2023-03-23T01:18:48;93687.00;;;15.70
15575;BMP180;7888;46.748;8.102;2023-03-23T01:21:16;93699.00;;;15.80
15575;BMP180;7888;46.748;8.102;2023-03-23T01:23:43;93701.00;;;15.80
15575;BMP180;7888;46.748;8.102;2023-03-23T01:26:17;93701.00;;;15.70
15575;BMP180;7888;46.748;8.102;2023-03-23T01:28:43;93684.00;;;15.70
15575;BMP180;7888;46.748;8.102;2023-03-23T01:31:16;93688.00;;;15.70
15575;BMP180;7888;46.748;8.102;2023-03-23T01:33:43;93699.00;;;15.70
15575;BMP180;7888;46.748;8.102;2023-03-23T01:36:16;93696.00;;;15.70
15575;BMP180;7888;46.748;8.102;2023-03-23T01:38:45;93687.00;;;15.70
15575;BMP180;7888;46.748;8.102;2023-03-23T01:41:13;93691.00;;;15.70
15575;BMP180;7888;46.748;8.102;2023-03-23T01:46:34;93699.00;;;15.70
15575;BMP180;7888;46.748;8.102;2023-03-23T01:49:09;93697.00;;;15.60
15575;BMP180;7888;46.748;8.102;2023-03-23T01:51:48;93707.00;;;15.60
15575;BMP180;7888;46.748;8.102;2023-03-23T01:54:17;93709.00;;;15.60
15575;BMP180;7888;46.748;8.102;2023-03-23T01:56:52;93704.00;;;15.60
15575;BMP180;7888;46.748;8.102;2023-03-23T01:59:22;93694.00;;;15.60
15575;BMP180;7888;46.748;8.102;2023-03-23T02:01:49;93703.00;;;15.70
15575;BMP180;7888;46.748;8.102;2023-03-23T02:04:19;93685.00;;;15.70
15575;BMP180;7888;46.748;8.102;2023-03-23T02:06:46;93695.00;;;15.60
15575;BMP180;7888;46.748;8.102;2023-03-23T02:09:15;93696.00;;;15.70
15575;BMP180;7888;46.748;8.102;2023-03-23T02:11:44;93698.00;;;15.70
15575;BMP180;7888;46.748;8.102;2023-03-23T02:14:10;93690.00;;;15.70
15575;BMP180;7888;46.748;8.102;2023-03-23T02:16:56;93691.00;;;15.60
15575;BMP180;7888;46.748;8.102;2023-03-23T02:19:54;93689.00;;;15.60
15575;BMP180;7888;46.748;8.102;2023-03-23T02:25:58;93682.00;;;15.60
15575;BMP180;7888;46.748;8.102;2023-03-23T02:31:42;93664.00;;;15.50
15575;BMP180;7888;46.748;8.102;2023-03-23T02:34:27;93681.00;;;15.50
15575;BMP180;7888;46.748;8.102;2023-03-23T02:37:24;93680.00;;;15.50
15575;BMP180;7888;46.748;8.102;2023-03-23T02:39:59;93655.00;;;15.40
15575;BMP180;7888;46.748;8.102;2023-03-23T02:42:37;93687.00;;;15.40
15575;BMP180;7888;46.748;8.102;2023-03-23T02:45:08;93677.00;;;15.50
15575;BMP180;7888;46.748;8.102;2023-03-23T02:47:38;93686.00;;;15.50
15575;BMP180;7888;46.748;8.102;2023-03-23T02:50:09;93676.00;;;15.50
15575;BMP180;7888;46.748;8.102;2023-03-23T02:52:39;93677.00;;;15.50
15575;BMP180;7888;46.748;8.102;2023-03-23T02:55:08;93673.00;;;15.50
15575;BMP180;7888;46.748;8.102;2023-03-23T02:57:38;93688.00;;;15.50
15575;BMP180;7888;46.748;8.102;2023-03-23T03:00:06;93678.00;;;15.40
15575;BMP180;7888;46.748;8.102;2023-03-23T03:02:39;93691.00;;;15.50
15575;BMP180;7888;46.748;8.102;2023-03-23T03:05:32;93689.00;;;15.50
15575;BMP180;7888;46.748;8.102;2023-03-23T03:11:09;93684.00;;;15.50
15575;BMP180;7888;46.748;8.102;2023-03-23T03:16:36;93698.00;;;15.50
15575;BMP180;7888;46.748;8.102;2023-03-23T03:21:48;93698.00;;;15.50
15575;BMP180;7888;46.748;8.102;2023-03-23T03:24:20;93701.00;;;15.40
15575;BMP180;7888;46.748;8.102;2023-03-23T03:26:50;93685.00;;;15.40
15575;BMP180;7888;46.748;8.102;2023-03-23T03:29:25;93699.00;;;15.40
15575;BMP180;7888;46.748;8.102;2023-03-23T03:31:53;93660.00;;;15.40
15575;BMP180;7888;46.748;8.102;2023-03-23T03:34:21;93681.00;;;15.40
15575;BMP180;7888;46.748;8.102;2023-03-23T03:36:51;93680.00;;;15.40
15575;BMP180;7888;46.748;8.102;2023-03-23T03:39:18;93670.00;;;15.40
15575;BMP180;7888;46.748;8.102;2023-03-23T03:41:46;93672.00;;;15.40
15575;BMP180;7888;46.748;8.102;2023-03-23T03:44:13;93657.00;;;15.40
15575;BMP180;7888;46.748;8.102;2023-03-23T03:46:39;93654.00;;;15.40
15575;BMP180;7888;46.748;8.102;2023-03-23T03:49:09;93627.00;;;15.40
15575;BMP180;7888;46.748;8.102;2023-03-23T03:51:38;93644.00;;;15.40
15575;BMP180;7888;46.748;8.102;2023-03-23T03:54:05;93634.00;;;15.40
15575;BMP180;7888;46.748;8.102;2023-03-23T03:56:31;93644.00;;;15.50
15575;BMP180;7888;46.748;8.102;2023-03-23T03:59:07;93642.00;;;15.40
15575;BMP180;7888;46.748;8.102;2023-03-23T04:01:34;93635.00;;;15.40
15575;BMP180;7888;46.748;8.102;2023-03-23T04:04:00;93624.00;;;15.40
15575;BMP180;7888;46.748;8.102;2023-03-23T04:06:26;93648.00;;;15.40
15575;BMP180;7888;46.748;8.102;2023-03-23T04:08:57;93625.00;;;15.30
15575;BMP180;7888;46.748;8.102;2023-03-23T04:11:25;93635.00;;;15.30
15575;BMP180;7888;46.748;8.102;2023-03-23T04:13:51;93614.00;;;15.30
15575;BMP180;7888;46.748;8.102;2023-03-23T04:16:18;93623.00;;;15.30
15575;BMP180;7888;46.748;8.102;2023-03-23T04:18:44;93609.00;;;15.30
15575;BMP180;7888;46.748;8.102;2023-03-23T04:21:10;93609.00;;;15.30
15575;BMP180;7888;46.748;8.102;2023-03-23T04:23:37;93593.00;;;15.30
15575;BMP180;7888;46.748;8.102;2023-03-23T04:26:04;93611.00;;;15.30
15575;BMP180;7888;46.748;8.102;2023-03-23T04:28:30;93616.00;;;15.40
15575;BMP180;7888;46.748;8.102;2023-03-23T04:31:00;93594.00;;;15.40
15575;BMP180;7888;46.748;8.102;2023-03-23T04:33:28;93610.00;;;15.40
15575;BMP180;7888;46.748;8.102;2023-03-23T04:36:00;93596.00;;;15.40
15575;BMP180;7888;46.748;8.102;2023-03-23T04:38:28;93608.00;;;15.40
15575;BMP180;7888;46.748;8.102;2023-03-23T04:40:55;93599.00;;;15.40
15575;BMP180;7888;46.748;8.102;2023-03-23T04:43:23;93617.00;;;15.40
15575;BMP180;7888;46.748;8.102;2023-03-23T04:45:57;93620.00;;;15.30
15575;BMP180;7888;46.748;8.102;2023-03-23T04:48:29;93630.00;;;15.30
15575;BMP180;7888;46.748;8.102;2023-03-23T04:51:02;93634.00;;;15.30
15575;BMP180;7888;46.748;8.102;2023-03-23T04:53:30;93639.00;;;15.30
15575;BMP180;7888;46.748;8.102;2023-03-23T04:55:56;93643.00;;;15.30
15575;BMP180;7888;46.748;8.102;2023-03-23T04:58:23;93644.00;;;15.30
15575;BMP180;7888;46.748;8.102;2023-03-23T05:00:50;93627.00;;;15.20
15575;BMP180;7888;46.748;8.102;2023-03-23T05:03:17;93622.00;;;15.20
15575;BMP180;7888;46.748;8.102;2023-03-23T05:05:44;93638.00;;;15.20
15575;BMP180;7888;46.748;8.102;2023-03-23T05:08:14;93642.00;;;15.20
15575;BMP180;7888;46.748;8.102;2023-03-23T05:10:39;93656.00;;;15.20
15575;BMP180;7888;46.748;8.102;2023-03-23T05:13:05;93647.00;;;15.20
15575;BMP180;7888;46.748;8.102;2023-03-23T05:15:31;93653.00;;;15.20
15575;BMP180;7888;46.748;8.102;2023-03-23T05:17:57;93638.00;;;15.20
15575;BMP180;7888;46.748;8.102;2023-03-23T05:20:23;93645.00;;;15.20
15575;BMP180;7888;46.748;8.102;2023-03-23T05:22:50;93641.00;;;15.20
15575;BMP180;7888;46.748;8.102;2023-03-23T05:25:17;93644.00;;;15.20
15575;BMP180;7888;46.748;8.102;2023-03-23T05:27:47;93639.00;;;15.20
15575;BMP180;7888;46.748;8.102;2023-03-23T05:30:20;93623.00;;;15.20
15575;BMP180;7888;46.748;8.102;2023-03-23T05:32:49;93643.00;;;15.20
15575;BMP180;7888;46.748;8.102;2023-03-23T05:35:17;93649.00;;;15.20
15575;BMP180;7888;46.748;8.102;2023-03-23T05:37:44;93641.00;;;15.20
15575;BMP180;7888;46.748;8.102;2023-03-23T05:40:11;93644.00;;;15.20
15575;BMP180;7888;46.748;8.102;2023-03-23T05:42:39;93649.00;;;15.10
15575;BMP180;7888;46.748;8.102;2023-03-23T05:45:10;93650.00;;;15.10
15575;BMP180;7888;46.748;8.102;2023-03-23T05:47:40;93655.00;;;15.10
15575;BMP180;7888;46.748;8.102;2023-03-23T05:50:08;93649.00;;;15.10
15575;BMP180;7888;46.748;8.102;2023-03-23T05:52:39;93651.00;;;15.10
15575;BMP180;7888;46.748;8.102;2023-03-23T05:55:06;93651.00;;;15.10
15575;BMP180;7888;46.748;8.102;2023-03-23T05:57:33;93654.00;;;15.10
15575;BMP180;7888;46.748;8.102;2023-03-23T05:59:59;93629.00;;;15.00
15575;BMP180;7888;46.748;8.102;2023-03-23T06:02:26;93656.00;;;15.00
15575;BMP180;7888;46.748;8.102;2023-03-23T06:04:54;93658.00;;;15.10
15575;BMP180;7888;46.748;8.102;2023-03-23T06:07:26;93669.00;;;15.10
15575;BMP180;7888;46.748;8.102;2023-03-23T06:09:53;93674.00;;;15.10
15575;BMP180;7888;46.748;8.102;2023-03-23T06:12:19;93670.00;;;15.10
15575;BMP180;7888;46.748;8.102;2023-03-23T06:14:47;93674.00;;;15.10
15575;BMP180;7888;46.748;8.102;2023-03-23T06:17:15;93650.00;;;15.00
15575;BMP180;7888;46.748;8.102;2023-03-23T06:19:41;93646.00;;;15.00
15575;BMP180;7888;46.748;8.102;2023-03-23T06:22:07;93681.00;;;15.00
15575;BMP180;7888;46.748;8.102;2023-03-23T06:24:33;93679.00;;;15.00
15575;BMP180;7888;46.748;8.102;2023-03-23T06:26:59;93668.00;;;15.10
15575;BMP180;7888;46.748;8.102;2023-03-23T06:29:25;93683.00;;;15.10
15575;BMP180;7888;46.748;8.102;2023-03-23T06:31:56;93681.00;;;15.00
15575;BMP180;7888;46.748;8.102;2023-03-23T06:34:22;93664.00;;;15.00
15575;BMP180;7888;46.748;8.102;2023-03-23T06:36:48;93681.00;;;15.10
15575;BMP180;7888;46.748;8.102;2023-03-23T06:39:14;93686.00;;;15.10
15575;BMP180;7888;46.748;8.102;2023-03-23T06:41:41;93652.00;;;15.10
15575;BMP180;7888;46.748;8.102;2023-03-23T06:44:07;93680.00;;;15.20
15575;BMP180;7888;46.748;8.102;2023-03-23T06:46:34;93666.00;;;15.20
15575;BMP180;7888;46.748;8.102;2023-03-23T06:49:00;93660.00;;;15.30
15575;BMP180;7888;46.748;8.102;2023-03-23T06:51:26;93678.00;;;15.30
15575;BMP180;7888;46.748;8.102;2023-03-23T06:53:52;93678.00;;;15.30
15575;BMP180;7888;46.748;8.102;2023-03-23T06:56:17;93676.00;;;15.40
15575;BMP180;7888;46.748;8.102;2023-03-23T06:58:43;93672.00;;;15.40
15575;BMP180;7888;46.748;8.102;2023-03-23T07:01:11;93670.00;;;15.40
15575;BMP180;7888;46.748;8.102;2023-03-23T07:03:38;93665.00;;;15.50
15575;BMP180;7888;46.748;8.102;2023-03-23T07:06:05;93673.00;;;15.60
15575;BMP180;7888;46.748;8.102;2023-03-23T07:08:31;93666.00;;;15.60
15575;BMP180;7888;46.748;8.102;2023-03-23T07:10:57;93658.00;;;15.70
15575;BMP180;7888;46.748;8.102;2023-03-23T07:13:23;93668.00;;;15.70
15575;BMP180;7888;46.748;8.102;2023-03-23T07:15:49;93676.00;;;15.80
15575;BMP180;7888;46.748;8.102;2023-03-23T07:18:16;93674.00;;;15.90
15575;BMP180;7888;46.748;8.102;2023-03-23T07:20:42;93677.00;;;15.90
15575;BMP180;7888;46.748;8.102;2023-03-23T07:23:08;93678.00;;;16.00
15575;BMP180;7888;46.748;8.102;2023-03-23T07:25:35;93680.00;;;16.00
15575;BMP180;7888;46.748;8.102;2023-03-23T07:28:02;93679.00;;;16.10
15575;BMP180;7888;46.748;8.102;2023-03-23T07:30:29;93682.00;;;16.10
15575;BMP180;7888;46.748;8.102;2023-03-23T07:32:56;93683.00;;;16.10
15575;BMP180;7888;46.748;8.102;2023-03-23T07:35:24;93681.00;;;16.20
15575;BMP180;7888;46.748;8.102;2023-03-23T07:37:50;93689.00;;;16.20
15575;BMP180;7888;46.748;8.102;2023-03-23T07:40:18;93690.00;;;16.30
15575;BMP180;7888;46.748;8.102;2023-03-23T07:42:46;93675.00;;;16.30
15575;BMP180;7888;46.748;8.102;2023-03-23T07:45:16;93685.00;;;16.40
15575;BMP180;7888;46.748;8.102;2023-03-23T07:47:42;93698.00;;;16.40
15575;BMP180;7888;46.748;8.102;2023-03-23T07:50:09;93725.00;;;16.50
15575;BMP180;7888;46.748;8.102;2023-03-23T07:52:36;93722.00;;;16.50
15575;BMP180;7888;46.748;8.102;2023-03-23T07:55:05;93723.00;;;16.50
15575;BMP180;7888;46.748;8.102;2023-03-23T07:57:32;93715.00;;;16.60
15575;BMP180;7888;46.748;8.102;2023-03-23T08:00:00;93718.00;;;16.60
15575;BMP180;7888;46.748;8.102;2023-03-23T08:02:26;93698.00;;;16.70
15575;BMP180;7888;46.748;8.102;2023-03-23T08:04:52;93689.00;;;16.70
15575;BMP180;7888;46.748;8.102;2023-03-23T08:07:19;93679.00;;;16.70
15575;BMP180;7888;46.748;8.102;2023-03-23T08:09:47;93686.00;;;16.80
15575;BMP180;7888;46.748;8.102;2023-03-23T08:12:13;93678.00;;;16.90
15575;BMP180;7888;46.748;8.102;2023-03-23T08:14:39;93680.00;;;17.00
15575;BMP180;7888;46.748;8.102;2023-03-23T08:17:07;93682.00;;;17.10
15575;BMP180;7888;46.748;8.102;2023-03-23T08:19:35;93691.00;;;17.20
15575;BMP180;7888;46.748;8.102;2023-03-23T08:22:04;93699.00;;;17.20
15575;BMP180;7888;46.748;8.102;2023-03-23T08:24:31;93701.00;;;17.30
15575;BMP180;7888;46.748;8.102;2023-03-23T08:26:59;93678.00;;;17.30
15575;BMP180;7888;46.748;8.102;2023-03-23T08:29:26;93698.00;;;17.40
15575;BMP180;7888;46.748;8.102;2023-03-23T08:31:52;93693.00;;;17.40
15575;BMP180;7888;46.748;8.102;2023-03-23T08:34:19;93703.00;;;17.50
15575;BMP180;7888;46.748;8.102;2023-03-23T08:36:45;93706.00;;;17.50
15575;BMP180;7888;46.748;8.102;2023-03-23T08:39:12;93720.00;;;17.60
15575;BMP180;7888;46.748;8.102;2023-03-23T08:41:40;93707.00;;;17.70
15575;BMP180;7888;46.748;8.102;2023-03-23T08:44:06;93706.00;;;17.80
15575;BMP180;7888;46.748;8.102;2023-03-23T08:46:34;93709.00;;;17.90
15575;BMP180;7888;46.748;8.102;2023-03-23T08:49:00;93712.00;;;17.90
15575;BMP180;7888;46.748;8.102;2023-03-23T08:51:26;93697.00;;;18.00
15575;BMP180;7888;46.748;8.102;2023-03-23T08:53:53;93703.00;;;18.10
15575;BMP180;7888;46.748;8.102;2023-03-23T08:56:20;93711.00;;;18.10
15575;BMP180;7888;46.748;8.102;2023-03-23T08:58:46;93690.00;;;18.20
15575;BMP180;7888;46.748;8.102;2023-03-23T09:01:12;93716.00;;;18.30
15575;BMP180;7888;46.748;8.102;2023-03-23T09:03:38;93727.00;;;18.30
15575;BMP180;7888;46.748;8.102;2023-03-23T09:06:08;93727.00;;;18.30
15575;BMP180;7888;46.748;8.102;2023-03-23T09:08:36;93732.00;;;18.30
15575;BMP180;7888;46.748;8.102;2023-03-23T09:11:07;93730.00;;;18.30
15575;BMP180;7888;46.748;8.102;2023-03-23T09:13:35;93721.00;;;18.40
15575;BMP180;7888;46.748;8.102;2023-03-23T09:16:02;93726.00;;;18.40
15575;BMP180;7888;46.748;8.102;2023-03-23T09:18:30;93713.00;;;18.50
15575;BMP180;7888;46.748;8.102;2023-03-23T09:20:59;93725.00;;;18.60
15575;BMP180;7888;46.748;8.102;2023-03-23T09:23:25;93736.00;;;18.70
15575;BMP180;7888;46.748;8.102;2023-03-23T09:25:52;93717.00;;;18.80
15575;BMP180;7888;46.748;8.102;2023-03-23T09:28:19;93725.00;;;18.90
15575;BMP180;7888;46.748;8.102;2023-03-23T09:30:45;93724.00;;;19.00
15575;BMP180;7888;46.748;8.102;2023-03-23T09:33:14;93725.00;;;19.10
15575;BMP180;7888;46.748;8.102;2023-03-23T09:35:40;93713.00;;;19.10
15575;BMP180;7888;46.748;8.102;2023-03-23T09:38:09;93726.00;;;19.10
15575;BMP180;7888;46.748;8.102;2023-03-23T09:41:07;93723.00;;;19.20
15575;BMP180;7888;46.748;8.102;2023-03-23T09:43:47;93716.00;;;19.30
15575;BMP180;7888;46.748;8.102;2023-03-23T09:48:55;93704.00;;;19.40
15575;BMP180;7888;46.748;8.102;2023-03-23T09:51:44;93729.00;;;19.40
15575;BMP180;7888;46.748;8.102;2023-03-23T09:54:13;93729.00;;;19.70
15575;BMP180;7888;46.748;8.102;2023-03-23T09:56:39;93717.00;;;19.80
15575;BMP180;7888;46.748;8.102;2023-03-23T09:59:19;93706.00;;;19.90
15575;BMP180;7888;46.748;8.102;2023-03-23T10:01:52;93698.00;;;20.00
15575;BMP180;7888;46.748;8.102;2023-03-23T10:04:41;93705.00;;;20.00
15575;BMP180;7888;46.748;8.102;2023-03-23T10:07:16;93709.00;;;20.10
15575;BMP180;7888;46.748;8.102;2023-03-23T10:09:46;93712.00;;;20.20
15575;BMP180;7888;46.748;8.102;2023-03-23T10:15:39;93723.00;;;20.40
15575;BMP180;7888;46.748;8.102;2023-03-23T10:18:28;93725.00;;;20.50
15575;BMP180;7888;46.748;8.102;2023-03-23T10:20:59;93728.00;;;20.70
15575;BMP180;7888;46.748;8.102;2023-03-23T10:26:37;93724.00;;;20.90
15575;BMP180;7888;46.748;8.102;2023-03-23T10:29:21;93721.00;;;21.00
15575;BMP180;7888;46.748;8.102;2023-03-23T10:32:11;93714.00;;;21.10
15575;BMP180;7888;46.748;8.102;2023-03-23T10:34:47;93712.00;;;21.20
15575;BMP180;7888;46.748;8.102;2023-03-23T10:39:59;93700.00;;;21.40
15575;BMP180;7888;46.748;8.102;2023-03-23T10:42:33;93706.00;;;21.50
15575;BMP180;7888;46.748;8.102;2023-03-23T10:45:13;93703.00;;;21.60
15575;BMP180;7888;46.748;8.102;2023-03-23T10:47:47;93708.00;;;21.60
15575;BMP180;7888;46.748;8.102;2023-03-23T10:50:21;93701.00;;;21.70
15575;BMP180;7888;46.748;8.102;2023-03-23T10:52:51;93705.00;;;21.80
15575;BMP180;7888;46.748;8.102;2023-03-23T10:55:22;93709.00;;;21.80
15575;BMP180;7888;46.748;8.102;2023-03-23T10:58:03;93691.00;;;21.80
15575;BMP180;7888;46.748;8.102;2023-03-23T11:00:30;93700.00;;;22.00
15575;BMP180;7888;46.748;8.102;2023-03-23T11:03:05;93700.00;;;22.00
15575;BMP180;7888;46.748;8.102;2023-03-23T11:05:43;93698.00;;;22.00
15575;BMP180;7888;46.748;8.102;2023-03-23T11:08:26;93687.00;;;22.10
15575;BMP180;7888;46.748;8.102;2023-03-23T11:11:09;93704.00;;;22.20
15575;BMP180;7888;46.748;8.102;2023-03-23T11:13:42;93701.00;;;22.30
15575;BMP180;7888;46.748;8.102;2023-03-23T11:16:28;93699.00;;;22.40
15575;BMP180;7888;46.748;8.102;2023-03-23T11:18:55;93690.00;;;22.60
15575;BMP180;7888;46.748;8.102;2023-03-23T11:21:23;93687.00;;;22.70
15575;BMP180;7888;46.748;8.102;2023-03-23T11:23:54;93697.00;;;22.70
15575;BMP180;7888;46.748;8.102;2023-03-23T11:26:30;93685.00;;;22.70
15575;BMP180;7888;46.748;8.102;2023-03-23T11:29:26;93696.00;;;22.70
15575;BMP180;7888;46.748;8.102;2023-03-23T11:32:09;93692.00;;;22.80
15575;BMP180;7888;46.748;8.102;2023-03-23T11:34:43;93688.00;;;22.90
15575;BMP180;7888;46.748;8.102;2023-03-23T11:45:39;93689.00;;;23.20
15575;BMP180;7888;46.748;8.102;2023-03-23T11:48:37;93669.00;;;23.30
15575;BMP180;7888;46.748;8.102;2023-03-23T11:51:21;93675.00;;;23.30
15575;BMP180;7888;46.748;8.102;2023-03-23T11:54:34;93675.00;;;23.30
15575;BMP180;7888;46.748;8.102;2023-03-23T11:57:10;93678.00;;;23.40
15575;BMP180;7888;46.748;8.102;2023-03-23T11:59:38;93665.00;;;23.50
15575;BMP180;7888;46.748;8.102;2023-03-23T12:02:34;93658.00;;;23.50
15575;BMP180;7888;46.748;8.102;2023-03-23T12:05:34;93671.00;;;23.60
15575;BMP180;7888;46.748;8.102;2023-03-23T12:08:30;93664.00;;;23.70
15575;BMP180;7888;46.748;8.102;2023-03-23T12:14:21;93664.00;;;23.80
15575;BMP180;7888;46.748;8.102;2023-03-23T12:17:28;93658.00;;;23.90
15575;BMP180;7888;46.748;8.102;2023-03-23T12:40:40;93640.00;;;24.40
15575;BMP180;7888;46.748;8.102;2023-03-23T12:43:51;93624.00;;;24.50
15575;BMP180;7888;46.748;8.102;2023-03-23T12:54:46;93638.00;;;24.60
15575;BMP180;7888;46.748;8.102;2023-03-23T13:00:19;93631.00;;;24.60
15575;BMP180;7888;46.748;8.102;2023-03-23T13:03:40;93641.00;;;24.60
15575;BMP180;7888;46.748;8.102;2023-03-23T13:11:36;93648.00;;;25.00
15575;BMP180;7888;46.748;8.102;2023-03-23T13:17:45;93639.00;;;25.00
15575;BMP180;7888;46.748;8.102;2023-03-23T13:23:25;93637.00;;;25.20
15575;BMP180;7888;46.748;8.102;2023-03-23T13:26:08;93645.00;;;25.30
15575;BMP180;7888;46.748;8.102;2023-03-23T13:29:09;93646.00;;;25.30
15575;BMP180;7888;46.748;8.102;2023-03-23T13:31:41;93638.00;;;25.50
15575;BMP180;7888;46.748;8.102;2023-03-23T13:34:24;93641.00;;;25.50
15575;BMP180;7888;46.748;8.102;2023-03-23T13:36:59;93640.00;;;25.50
15575;BMP180;7888;46.748;8.102;2023-03-23T13:39:32;93639.00;;;25.50
15575;BMP180;7888;46.748;8.102;2023-03-23T13:50:00;93655.00;;;25.40
15575;BMP180;7888;46.748;8.102;2023-03-23T13:52:55;93665.00;;;25.20
15575;BMP180;7888;46.748;8.102;2023-03-23T13:58:43;93663.00;;;25.10
15575;BMP180;7888;46.748;8.102;2023-03-23T14:01:00;93659.00;;;25.10
15575;BMP180;7888;46.748;8.102;2023-03-23T14:03:34;93663.00;;;25.00
15575;BMP180;7888;46.748;8.102;2023-03-23T14:06:12;93668.00;;;25.00
15575;BMP180;7888;46.748;8.102;2023-03-23T14:08:45;93672.00;;;24.90
15575;BMP180;7888;46.748;8.102;2023-03-23T14:11:28;93669.00;;;24.90
15575;BMP180;7888;46.748;8.102;2023-03-23T14:14:06;93672.00;;;24.90
15575;BMP180;7888;46.748;8.102;2023-03-23T14:16:39;93672.00;;;24.90
15575;BMP180;7888;46.748;8.102;2023-03-23T14:19:30;93653.00;;;24.80
15575;BMP180;7888;46.748;8.102;2023-03-23T14:22:01;93670.00;;;24.80
15575;BMP180;7888;46.748;8.102;2023-03-23T14:24:38;93674.00;;;24.70
15575;BMP180;7888;46.748;8.102;2023-03-23T14:27:21;93656.00;;;24.60
15575;BMP180;7888;46.748;8.102;2023-03-23T14:30:03;93671.00;;;24.60
15575;BMP180;7888;46.748;8.102;2023-03-23T14:32:32;93678.00;;;24.60
15575;BMP180;7888;46.748;8.102;2023-03-23T14:35:05;93677.00;;;24.60
15575;BMP180;7888;46.748;8.102;2023-03-23T14:37:33;93676.00;;;24.60
15575;BMP180;7888;46.748;8.102;2023-03-23T14:40:01;93683.00;;;24.60
15575;BMP180;7888;46.748;8.102;2023-03-23T14:42:35;93682.00;;;24.50
15575;BMP180;7888;46.748;8.102;2023-03-23T14:45:05;93686.00;;;24.50
15575;BMP180;7888;46.748;8.102;2023-03-23T14:47:35;93676.00;;;24.40
15575;BMP180;7888;46.748;8.102;2023-03-23T14:50:18;93680.00;;;24.40
15575;BMP180;7888;46.748;8.102;2023-03-23T14:52:48;93671.00;;;24.30
15575;BMP180;7888;46.748;8.102;2023-03-23T14:55:18;93682.00;;;24.20
15575;BMP180;7888;46.748;8.102;2023-03-23T14:57:45;93685.00;;;24.10
15575;BMP180;7888;46.748;8.102;2023-03-23T15:00:27;93682.00;;;24.00
15575;BMP180;7888;46.748;8.102;2023-03-23T15:02:58;93679.00;;;23.90
15575;BMP180;7888;46.748;8.102;2023-03-23T15:05:30;93694.00;;;23.90
15575;BMP180;7888;46.748;8.102;2023-03-23T15:08:06;93691.00;;;23.80
15575;BMP180;7888;46.748;8.102;2023-03-23T15:10:33;93705.00;;;23.80
15575;BMP180;7888;46.748;8.102;2023-03-23T15:13:00;93698.00;;;23.80
15575;BMP180;7888;46.748;8.102;2023-03-23T15:15:30;93688.00;;;23.80
15575;BMP180;7888;46.748;8.102;2023-03-23T15:17:57;93691.00;;;23.80
15575;BMP180;7888;46.748;8.102;2023-03-23T15:20:46;93702.00;;;23.80
15575;BMP180;7888;46.748;8.102;2023-03-23T15:23:17;93699.00;;;23.80
15575;BMP180;7888;46.748;8.102;2023-03-23T15:25:52;93699.00;;;23.80
15575;BMP180;7888;46.748;8.102;2023-03-23T15:28:32;93696.00;;;23.80
15575;BMP180;7888;46.748;8.102;2023-03-23T15:31:05;93685.00;;;23.80
15575;BMP180;7888;46.748;8.102;2023-03-23T15:33:40;93687.00;;;23.80
15575;BMP180;7888;46.748;8.102;2023-03-23T15:36:17;93685.00;;;23.70
15575;BMP180;7888;46.748;8.102;2023-03-23T15:38:46;93696.00;;;23.70
15575;BMP180;7888;46.748;8.102;2023-03-23T15:41:28;93696.00;;;23.60
15575;BMP180;7888;46.748;8.102;2023-03-23T15:43:57;93687.00;;;23.50
15575;BMP180;7888;46.748;8.102;2023-03-23T15:46:27;93703.00;;;23.40
15575;BMP180;7888;46.748;8.102;2023-03-23T15:51:29;93699.00;;;23.30
15575;BMP180;7888;46.748;8.102;2023-03-23T15:53:56;93695.00;;;23.30
15575;BMP180;7888;46.748;8.102;2023-03-23T15:56:23;93696.00;;;23.30
15575;BMP180;7888;46.748;8.102;2023-03-23T15:58:50;93689.00;;;23.30
15575;BMP180;7888;46.748;8.102;2023-03-23T16:01:24;93692.00;;;23.30
15575;BMP180;7888;46.748;8.102;2023-03-23T16:04:04;93677.00;;;23.20
15575;BMP180;7888;46.748;8.102;2023-03-23T16:06:33;93680.00;;;23.30
15575;BMP180;7888;46.748;8.102;2023-03-23T16:09:00;93677.00;;;23.30
15575;BMP180;7888;46.748;8.102;2023-03-23T16:11:29;93682.00;;;23.20
15575;BMP180;7888;46.748;8.102;2023-03-23T16:13:57;93688.00;;;23.20
15575;BMP180;7888;46.748;8.102;2023-03-23T16:16:40;93676.00;;;23.10
15575;BMP180;7888;46.748;8.102;2023-03-23T16:19:10;93703.00;;;23.10
15575;BMP180;7888;46.748;8.102;2023-03-23T16:21:37;93687.00;;;23.10
15575;BMP180;7888;46.748;8.102;2023-03-23T16:24:03;93703.00;;;23.10
15575;BMP180;7888;46.748;8.102;2023-03-23T16:26:29;93695.00;;;23.00